createdAt,value
2024-05-09T00:02:09.264Z,83.98
2024-05-09T00:04:36.029Z,84.57
2024-05-09T00:07:02.830Z,85.24
2024-05-09T00:09:29.511Z,85.94
2024-05-09T00:11:56.245Z,85.87
2024-05-09T00:14:23.048Z,86.12
2024-05-09T00:16:49.875Z,86.43
2024-05-09T00:19:16.689Z,86.25
2024-05-09T00:21:43.514Z,86.46
2024-05-09T00:24:10.297Z,86.34
2024-05-09T00:26:36.994Z,86.23
2024-05-09T00:29:03.692Z,86.38
2024-05-09T00:31:30.363Z,86.50
2024-05-09T00:33:57.194Z,86.27
2024-05-09T00:36:24.051Z,86.44
2024-05-09T00:38:50.699Z,86.56
2024-05-09T00:41:19.651Z,86.66
2024-05-09T00:43:46.697Z,86.57
2024-05-09T00:46:13.499Z,86.64
2024-05-09T00:48:40.349Z,86.74
2024-05-09T00:51:07.168Z,87.02
2024-05-09T00:53:33.981Z,87.22
2024-05-09T00:56:00.802Z,87.28
2024-05-09T00:58:27.895Z,87.46
2024-05-09T01:00:54.604Z,87.39
2024-05-09T01:03:21.720Z,87.65
2024-05-09T01:05:48.793Z,87.25
2024-05-09T01:08:15.508Z,87.34
2024-05-09T01:10:44.876Z,87.95
2024-05-09T01:13:13.059Z,88.12
2024-05-09T01:15:39.770Z,88.12
2024-05-09T01:18:11.054Z,87.97
2024-05-09T01:20:42.450Z,88.49
2024-05-09T01:23:11.965Z,88.59
2024-05-09T01:25:39.356Z,88.91
2024-05-09T01:28:06.314Z,88.98
2024-05-09T01:30:35.819Z,89.09
2024-05-09T01:33:09.306Z,89.13
2024-05-09T01:35:37.811Z,89.27
2024-05-09T01:38:05.137Z,89.69
2024-05-09T01:40:37.580Z,90.18
2024-05-09T01:43:10.945Z,89.82
2024-05-09T01:45:41.763Z,89.85
2024-05-09T01:48:09.070Z,89.88
2024-05-09T01:50:40.079Z,89.95
2024-05-09T01:53:09.980Z,90.12
2024-05-09T01:55:36.873Z,89.90
2024-05-09T01:58:03.682Z,89.94
2024-05-09T02:00:38.173Z,89.99
2024-05-09T02:03:10.178Z,90.07
2024-05-09T02:05:37.886Z,89.84
2024-05-09T02:08:05.732Z,90.01
2024-05-09T02:10:33.401Z,90.08
2024-05-09T02:13:00.627Z,90.09
2024-05-09T02:15:27.328Z,90.14
2024-05-09T02:17:54.143Z,90.18
2024-05-09T02:20:30.202Z,90.13
2024-05-09T02:23:02.690Z,90.10
2024-05-09T02:25:30.104Z,90.26
2024-05-09T02:27:56.777Z,90.00
2024-05-09T02:30:30.729Z,90.38
2024-05-09T02:33:05.695Z,90.56
2024-05-09T02:35:32.555Z,90.75
2024-05-09T02:37:59.285Z,90.77
2024-05-09T02:40:35.044Z,90.51
2024-05-09T02:43:04.389Z,90.73
2024-05-09T02:45:31.106Z,91.03
2024-05-09T02:47:58.015Z,91.11
2024-05-09T02:50:33.514Z,91.17
2024-05-09T02:53:04.996Z,91.42
2024-05-09T02:55:31.824Z,91.31
2024-05-09T02:57:58.490Z,91.48
2024-05-09T03:00:34.299Z,91.63
2024-05-09T03:03:06.773Z,91.83
2024-05-09T03:05:33.723Z,92.00
2024-05-09T03:08:00.498Z,91.99
2024-05-09T03:10:29.163Z,92.10
2024-05-09T03:13:06.176Z,92.25
2024-05-09T03:15:33.158Z,91.97
2024-05-09T03:18:00.519Z,91.87
2024-05-09T03:20:33.104Z,91.91
2024-05-09T03:23:02.134Z,92.06
2024-05-09T03:25:28.922Z,92.29
2024-05-09T03:27:55.752Z,92.37
2024-05-09T03:30:30.686Z,92.37
2024-05-09T03:33:06.182Z,92.42
2024-05-09T03:35:32.921Z,92.07
2024-05-09T03:37:59.694Z,92.19
2024-05-09T03:40:29.055Z,92.54
2024-05-09T03:42:57.352Z,92.59
2024-05-09T03:45:23.981Z,92.59
2024-05-09T03:47:50.916Z,92.52
2024-05-09T03:50:22.891Z,92.24
2024-05-09T03:52:56.617Z,92.11
2024-05-09T03:55:23.336Z,92.03
2024-05-09T03:57:50.004Z,92.47
2024-05-09T04:00:22.533Z,92.63
2024-05-09T04:02:58.961Z,92.72
2024-05-09T04:05:25.763Z,92.42
2024-05-09T04:07:52.462Z,92.79
2024-05-09T04:10:27.695Z,92.97
2024-05-09T04:12:59.199Z,93.40
2024-05-09T04:15:25.881Z,93.13
2024-05-09T04:17:52.754Z,93.35
2024-05-09T04:20:29.202Z,93.28
2024-05-09T04:23:03.844Z,93.46
2024-05-09T04:25:31.975Z,93.99
2024-05-09T04:27:58.678Z,93.99
2024-05-09T04:30:34.598Z,94.19
2024-05-09T04:33:05.855Z,94.45
2024-05-09T04:35:32.896Z,94.51
2024-05-09T04:37:59.684Z,94.87
2024-05-09T04:40:33.077Z,94.96
2024-05-09T04:43:02.925Z,95.01
2024-05-09T04:45:29.623Z,94.94
2024-05-09T04:47:56.534Z,94.93
2024-05-09T04:50:30.392Z,94.88
2024-05-09T04:53:03.385Z,95.04
2024-05-09T04:55:30.254Z,95.04
2024-05-09T04:57:57.013Z,95.41
2024-05-09T05:00:32.435Z,95.16
2024-05-09T05:03:04.805Z,95.34
2024-05-09T05:05:31.770Z,95.29
2024-05-09T05:07:58.479Z,95.57
2024-05-09T05:10:33.223Z,95.79
2024-05-09T05:13:02.614Z,96.18
2024-05-09T05:15:29.285Z,96.38
2024-05-09T05:17:56.476Z,96.37
2024-05-09T05:20:30.691Z,96.59
2024-05-09T05:23:00.227Z,96.24
2024-05-09T05:25:26.998Z,96.21
2024-05-09T05:27:53.643Z,95.90
2024-05-09T05:30:25.243Z,95.02
2024-05-09T05:32:56.019Z,94.60
2024-05-09T05:35:22.893Z,94.32
2024-05-09T05:37:49.634Z,93.54
2024-05-09T05:40:25.368Z,92.96
2024-05-09T05:42:59.592Z,93.05
2024-05-09T05:45:26.355Z,92.86
2024-05-09T05:47:53.926Z,92.45
2024-05-09T05:50:27.667Z,92.33
2024-05-09T05:53:01.289Z,91.05
2024-05-09T05:55:27.992Z,90.60
2024-05-09T05:57:54.693Z,90.55
2024-05-09T06:00:29.114Z,89.76
2024-05-09T06:03:02.138Z,88.84
2024-05-09T06:05:29.117Z,87.64
2024-05-09T06:07:55.946Z,87.29
2024-05-09T06:10:29.580Z,87.36
2024-05-09T06:13:01.643Z,87.15
2024-05-09T06:15:28.362Z,85.85
2024-05-09T06:17:55.286Z,85.01
2024-05-09T06:20:31.543Z,85.32
2024-05-09T06:23:02.568Z,85.74
2024-05-09T06:25:29.292Z,85.97
2024-05-09T06:27:55.979Z,85.63
2024-05-09T06:30:30.043Z,85.28
2024-05-09T06:33:07.224Z,84.96
2024-05-09T06:35:34.366Z,84.13
2024-05-09T06:38:01.632Z,84.05
2024-05-09T06:40:36.450Z,83.09
2024-05-09T06:43:10.336Z,82.61
2024-05-09T06:45:37.157Z,82.21
2024-05-09T06:48:04.414Z,82.17
2024-05-09T06:50:37.040Z,81.62
2024-05-09T06:53:05.335Z,81.49
2024-05-09T06:55:32.102Z,81.55
2024-05-09T06:57:58.807Z,81.54
2024-05-09T07:00:34.455Z,81.49
2024-05-09T07:03:17.737Z,81.17
2024-05-09T07:05:48.342Z,80.19
2024-05-09T07:08:16.237Z,80.19
2024-05-09T07:10:43.275Z,79.84
2024-05-09T07:13:13.677Z,80.09
2024-05-09T07:15:41.355Z,79.83
2024-05-09T07:18:12.166Z,78.78
2024-05-09T07:20:40.120Z,78.90
2024-05-09T07:23:10.048Z,78.73
2024-05-09T07:25:42.503Z,78.22
2024-05-09T07:28:18.617Z,78.02
2024-05-09T07:30:45.417Z,77.87
2024-05-09T07:33:22.622Z,77.92
2024-05-09T07:35:50.643Z,77.66
2024-05-09T07:38:17.445Z,77.54
2024-05-09T07:40:44.298Z,77.94
2024-05-09T07:43:10.957Z,76.73
2024-05-09T07:45:48.367Z,76.15
2024-05-09T07:53:38.466Z,75.15
2024-05-09T07:56:06.788Z,75.08
2024-05-09T07:58:33.627Z,74.11
2024-05-09T08:01:00.393Z,73.82
2024-05-09T08:03:27.188Z,73.76
2024-05-09T08:05:54.017Z,73.56
2024-05-09T08:08:20.736Z,73.14
2024-05-09T08:10:47.649Z,73.34
2024-05-09T08:13:14.495Z,73.75
2024-05-09T08:15:41.440Z,74.00
2024-05-09T08:18:08.996Z,72.84
2024-05-09T08:20:39.025Z,72.37
2024-05-09T08:23:05.834Z,72.04
2024-05-09T08:25:32.562Z,71.47
2024-05-09T08:27:59.290Z,70.63
2024-05-09T08:30:32.873Z,70.30
2024-05-09T08:33:03.918Z,69.38
2024-05-09T08:35:30.708Z,69.26
2024-05-09T08:37:57.480Z,69.39
2024-05-09T08:40:30.981Z,69.30
2024-05-09T08:43:01.963Z,69.31
2024-05-09T08:45:28.700Z,68.58
2024-05-09T08:47:55.555Z,68.94
2024-05-09T08:50:31.702Z,67.73
2024-05-09T08:53:04.742Z,66.26
2024-05-09T08:55:31.399Z,66.24
2024-05-09T08:57:58.465Z,65.29
2024-05-09T09:00:33.862Z,64.73
2024-05-09T09:03:04.054Z,64.13
2024-05-09T09:05:31.258Z,63.17
2024-05-09T09:07:58.263Z,62.23
2024-05-09T09:10:31.062Z,59.14
2024-05-09T09:13:00.994Z,57.27
2024-05-09T09:15:27.831Z,54.49
2024-05-09T09:17:59.803Z,54.05
2024-05-09T09:20:34.122Z,52.77
2024-05-09T09:23:03.644Z,52.55
2024-05-09T09:25:30.436Z,51.04
2024-05-09T09:27:58.228Z,49.61
2024-05-09T09:30:34.985Z,49.56
2024-05-09T09:33:05.359Z,50.14
2024-05-09T09:35:32.422Z,49.51
2024-05-09T09:38:01.922Z,49.34
2024-05-09T09:40:40.397Z,48.16
2024-05-09T09:43:14.132Z,48.92
2024-05-09T09:45:41.767Z,48.96
2024-05-09T09:48:08.801Z,48.96
2024-05-09T09:50:35.674Z,48.62
2024-05-09T09:53:03.787Z,46.91
2024-05-09T09:55:31.183Z,47.66
2024-05-09T09:57:57.935Z,48.22
2024-05-09T10:00:30.556Z,48.40
2024-05-09T10:03:00.124Z,48.40
2024-05-09T10:05:27.154Z,47.58
2024-05-09T10:07:54.129Z,47.59
2024-05-09T10:10:31.443Z,48.13
2024-05-09T10:13:09.084Z,48.29
2024-05-09T10:15:46.003Z,49.28
2024-05-09T10:18:13.507Z,45.74
2024-05-09T10:20:43.723Z,45.98
2024-05-09T10:23:26.414Z,46.15
2024-05-09T10:26:00.174Z,46.32
2024-05-09T10:28:33.228Z,47.02
2024-05-09T10:31:06.490Z,47.09
2024-05-09T10:33:38.893Z,48.30
2024-05-09T10:36:18.526Z,47.81
2024-05-09T10:38:45.199Z,47.96
2024-05-09T10:41:11.937Z,48.06
2024-05-09T10:43:39.090Z,49.19
2024-05-09T10:46:05.864Z,48.94
2024-05-09T10:48:32.662Z,47.98
2024-05-09T10:50:59.489Z,48.36
2024-05-09T10:53:26.130Z,47.41
2024-05-09T10:55:59.235Z,47.94
2024-05-09T10:58:26.290Z,45.51
2024-05-09T11:00:57.574Z,45.30
2024-05-09T11:03:24.691Z,45.33
2024-05-09T11:05:55.121Z,46.25
2024-05-09T11:08:22.346Z,46.62
2024-05-09T11:10:53.025Z,46.48
2024-05-09T11:13:35.918Z,45.76
2024-05-09T11:16:02.969Z,44.83
2024-05-09T11:18:34.676Z,44.59
2024-05-09T11:21:03.708Z,44.96
2024-05-09T11:23:30.808Z,44.87
2024-05-09T11:25:58.238Z,45.86
2024-05-09T11:28:26.418Z,45.76
2024-05-09T11:30:53.247Z,46.36
2024-05-09T11:33:20.025Z,46.66
2024-05-09T11:35:46.838Z,43.66
2024-05-09T11:38:13.653Z,42.76
2024-05-09T11:40:40.530Z,42.92
2024-05-09T11:43:07.619Z,43.38
2024-05-09T11:45:34.455Z,44.21
2024-05-09T11:48:01.392Z,43.71
2024-05-09T11:50:33.020Z,43.46
2024-05-09T11:53:02.512Z,45.14
2024-05-09T11:55:29.458Z,45.85
2024-05-09T11:57:57.066Z,46.00
2024-05-09T12:00:33.029Z,46.22
2024-05-09T12:03:03.347Z,45.16
2024-05-09T12:05:30.203Z,44.09
2024-05-09T12:07:56.923Z,44.23
2024-05-09T12:10:32.086Z,43.60
2024-05-09T12:13:01.234Z,44.45
2024-05-09T12:15:28.038Z,44.84
2024-05-09T12:17:55.976Z,44.55
2024-05-09T12:20:32.314Z,43.73
2024-05-09T12:23:03.060Z,41.25
2024-05-09T12:25:29.790Z,41.92
2024-05-09T12:27:56.471Z,41.83
2024-05-09T12:30:32.772Z,42.46
2024-05-09T12:33:04.526Z,43.22
2024-05-09T12:35:31.484Z,43.41
2024-05-09T12:37:58.150Z,42.24
2024-05-09T12:40:34.208Z,42.41
2024-05-09T12:43:04.708Z,43.95
2024-05-09T12:45:31.769Z,43.01
2024-05-09T12:47:58.833Z,43.95
2024-05-09T12:50:32.016Z,43.47
2024-05-09T12:53:01.174Z,41.55
2024-05-09T12:55:28.746Z,42.65
2024-05-09T12:57:58.244Z,42.88
2024-05-09T13:00:31.454Z,44.57
2024-05-09T13:03:01.158Z,43.66
2024-05-09T13:05:28.433Z,45.29
2024-05-09T13:07:55.506Z,45.08
2024-05-09T13:10:29.109Z,44.30
2024-05-09T13:12:59.568Z,44.55
2024-05-09T13:15:26.600Z,44.46
2024-05-09T13:17:53.454Z,43.71
2024-05-09T13:20:29.114Z,44.75
2024-05-09T13:23:01.349Z,44.69
2024-05-09T13:25:28.099Z,46.36
2024-05-09T13:27:55.013Z,47.72
2024-05-09T13:30:29.423Z,47.10
2024-05-09T13:33:06.595Z,47.47
2024-05-09T13:35:34.146Z,46.49
2024-05-09T13:38:01.522Z,47.55
2024-05-09T13:40:33.478Z,48.93
2024-05-09T13:43:02.882Z,50.40
2024-05-09T13:45:29.768Z,50.85
2024-05-09T13:47:56.750Z,50.71
2024-05-09T13:50:31.559Z,50.45
2024-05-09T13:53:02.191Z,49.74
2024-05-09T13:55:29.078Z,49.63
2024-05-09T13:57:55.927Z,50.92
2024-05-09T14:00:37.236Z,51.74
2024-05-09T14:03:09.794Z,51.66
2024-05-09T14:05:36.950Z,49.99
2024-05-09T14:08:03.993Z,48.80
2024-05-09T14:10:32.006Z,48.43
2024-05-09T14:13:00.382Z,49.81
2024-05-09T14:15:27.119Z,49.62
2024-05-09T14:17:54.417Z,50.66
2024-05-09T14:20:30.827Z,49.94
2024-05-09T14:23:01.667Z,48.05
2024-05-09T14:25:28.730Z,47.86
2024-05-09T14:27:59.648Z,47.35
2024-05-09T14:30:34.541Z,46.51
2024-05-09T14:33:05.034Z,47.77
2024-05-09T14:35:32.263Z,47.59
2024-05-09T14:37:59.031Z,46.70
2024-05-09T14:40:36.394Z,46.21
2024-05-09T14:43:08.170Z,48.27
2024-05-09T14:45:35.177Z,48.89
2024-05-09T14:48:02.476Z,49.49
2024-05-09T14:50:35.816Z,50.21
2024-05-09T14:53:06.622Z,50.34
2024-05-09T14:55:34.843Z,50.89
2024-05-09T14:58:01.680Z,51.21
2024-05-09T15:00:33.306Z,52.30
2024-05-09T15:03:03.193Z,52.55
2024-05-09T15:05:30.113Z,52.43
2024-05-09T15:08:20.596Z,53.42
2024-05-09T15:10:51.438Z,53.42
2024-05-09T15:13:19.233Z,54.47
2024-05-09T15:15:46.275Z,54.34
2024-05-09T15:18:14.250Z,54.87
2024-05-09T15:20:41.490Z,55.46
2024-05-09T15:23:08.229Z,55.11
2024-05-09T15:25:35.211Z,55.21
2024-05-09T15:28:02.365Z,56.06
2024-05-09T15:30:32.285Z,55.49
2024-05-09T15:33:01.408Z,55.84
2024-05-09T15:35:28.464Z,56.75
2024-05-09T15:37:55.808Z,56.78
2024-05-09T15:40:31.653Z,56.59
2024-05-09T15:43:05.829Z,57.19
2024-05-09T15:45:32.927Z,57.22
2024-05-09T15:48:00.027Z,57.57
2024-05-09T15:50:35.791Z,58.64
2024-05-09T15:53:06.849Z,58.07
2024-05-09T15:55:34.707Z,57.47
2024-05-09T15:58:02.161Z,57.73
2024-05-09T16:00:36.870Z,58.29
2024-05-09T16:03:07.515Z,58.71
2024-05-09T16:05:34.658Z,59.31
2024-05-09T16:08:01.474Z,59.43
2024-05-09T16:10:32.667Z,59.75
2024-05-09T16:13:01.277Z,59.66
2024-05-09T16:15:28.184Z,60.64
2024-05-09T16:17:55.390Z,61.04
2024-05-09T16:20:33.807Z,61.31
2024-05-09T16:23:05.907Z,61.51
2024-05-09T16:25:32.623Z,61.03
2024-05-09T16:27:59.367Z,61.57
2024-05-09T16:30:32.160Z,61.86
2024-05-09T16:33:02.678Z,62.79
2024-05-09T16:35:29.639Z,62.26
2024-05-09T16:37:56.300Z,63.31
2024-05-09T16:40:30.326Z,63.30
2024-05-09T16:43:04.638Z,63.83
2024-05-09T16:45:31.790Z,64.36
2024-05-09T16:47:59.292Z,63.87
2024-05-09T16:50:31.116Z,64.24
2024-05-09T16:53:00.212Z,64.35
2024-05-09T16:55:27.346Z,64.25
2024-05-09T16:57:54.199Z,64.33
2024-05-09T17:00:31.127Z,65.25
2024-05-09T17:03:06.647Z,65.19
2024-05-09T17:05:34.451Z,64.97
2024-05-09T17:08:01.543Z,65.17
2024-05-09T17:10:32.943Z,65.84
2024-05-09T17:13:02.184Z,65.98
2024-05-09T17:15:29.266Z,66.13
2024-05-09T17:17:56.064Z,65.61
2024-05-09T17:20:29.830Z,66.81
2024-05-09T17:23:02.057Z,66.03
2024-05-09T17:25:28.837Z,67.49
2024-05-09T17:27:56.781Z,67.41
2024-05-09T17:30:32.008Z,67.57
2024-05-09T17:33:03.997Z,67.66
2024-05-09T17:35:31.676Z,67.55
2024-05-09T17:37:58.836Z,67.44
2024-05-09T17:40:31.545Z,67.74
2024-05-09T17:43:02.433Z,68.72
2024-05-09T17:45:29.563Z,70.09
2024-05-09T17:47:56.408Z,68.90
2024-05-09T17:50:30.318Z,69.21
2024-05-09T17:53:01.878Z,69.37
2024-05-09T17:55:28.840Z,69.18
2024-05-09T17:57:55.887Z,70.38
2024-05-09T18:00:32.874Z,71.00
2024-05-09T18:03:05.488Z,71.29
2024-05-09T18:05:32.625Z,71.30
2024-05-09T18:07:59.612Z,71.79
2024-05-09T18:10:33.266Z,71.86
2024-05-09T18:13:04.206Z,72.05
2024-05-09T18:15:30.972Z,71.76
2024-05-09T18:17:58.115Z,70.40
2024-05-09T18:20:36.039Z,70.43
2024-05-09T18:23:08.348Z,69.66
2024-05-09T18:25:35.126Z,68.83
2024-05-09T18:28:02.624Z,69.50
2024-05-09T18:30:34.706Z,68.55
2024-05-09T18:33:03.932Z,68.54
2024-05-09T18:35:30.967Z,68.49
2024-05-09T18:37:57.668Z,68.27
2024-05-09T18:40:32.559Z,69.31
2024-05-09T18:43:02.914Z,69.67
2024-05-09T18:45:29.872Z,70.25
2024-05-09T18:47:56.681Z,70.17
2024-05-09T18:50:31.967Z,70.25
2024-05-09T18:56:34.483Z,70.46
2024-05-09T18:59:01.330Z,70.52
2024-05-09T19:01:28.024Z,70.90
2024-05-09T19:03:55.328Z,71.65
2024-05-09T19:06:24.612Z,71.48
2024-05-09T19:08:51.475Z,71.33
2024-05-09T19:11:18.255Z,71.99
2024-05-09T19:13:45.223Z,72.10
2024-05-09T19:16:12.050Z,72.24
2024-05-09T19:18:39.025Z,72.48
2024-05-09T19:21:06.481Z,72.60
2024-05-09T19:23:38.069Z,72.90
2024-05-09T19:26:05.461Z,73.24
2024-05-09T19:28:32.267Z,73.41
2024-05-09T19:30:59.152Z,73.86
2024-05-09T19:33:25.864Z,73.93
2024-05-09T19:35:52.715Z,73.74
2024-05-09T19:38:19.554Z,74.19
2024-05-09T19:40:46.514Z,74.13
2024-05-09T19:43:13.501Z,74.41
2024-05-09T19:45:40.354Z,74.62
2024-05-09T19:48:07.785Z,74.95
2024-05-09T19:50:41.515Z,74.66
2024-05-09T19:53:11.587Z,75.16
2024-05-09T19:55:38.659Z,75.43
2024-05-09T19:58:06.555Z,75.83
2024-05-09T20:00:36.660Z,76.29
2024-05-09T20:03:05.821Z,76.38
2024-05-09T20:05:33.275Z,76.33
2024-05-09T20:08:00.274Z,76.34
2024-05-09T20:10:32.093Z,76.86
2024-05-09T20:13:01.091Z,76.92
2024-05-09T20:15:27.861Z,77.44
2024-05-09T20:17:54.965Z,77.77
2024-05-09T20:20:32.458Z,77.55
2024-05-09T20:23:04.339Z,78.36
2024-05-09T20:25:31.047Z,78.27
2024-05-09T20:27:57.818Z,78.76
2024-05-09T20:30:31.372Z,78.86
2024-05-09T20:33:00.466Z,78.90
2024-05-09T20:35:29.523Z,79.32
2024-05-09T20:37:56.165Z,79.51
2024-05-09T20:40:29.145Z,79.66
2024-05-09T20:43:00.272Z,79.72
2024-05-09T20:45:27.155Z,80.00
2024-05-09T20:47:54.178Z,80.25
2024-05-09T20:50:28.865Z,80.79
2024-05-09T20:53:03.263Z,80.55
2024-05-09T20:55:30.271Z,80.46
2024-05-09T20:57:57.465Z,80.73
2024-05-09T21:00:33.879Z,80.33
2024-05-09T21:03:06.327Z,80.82
2024-05-09T21:05:33.961Z,80.88
2024-05-09T21:08:00.871Z,80.85
2024-05-09T21:10:32.098Z,80.82
2024-05-09T21:13:00.383Z,80.76
2024-05-09T21:15:27.084Z,80.94
2024-05-09T21:17:53.799Z,81.68
2024-05-09T21:20:24.239Z,82.16
2024-05-09T21:22:57.504Z,82.00
2024-05-09T21:25:24.301Z,82.08
2024-05-09T21:27:51.103Z,81.94
2024-05-09T21:30:26.810Z,81.57
2024-05-09T21:32:59.362Z,82.23
2024-05-09T21:35:26.162Z,82.28
2024-05-09T21:37:52.858Z,82.01
2024-05-09T21:40:27.112Z,82.48
2024-05-09T21:43:01.026Z,82.46
2024-05-09T21:45:27.927Z,82.43
2024-05-09T21:47:54.789Z,82.33
2024-05-09T21:50:28.103Z,82.20
2024-05-09T21:52:59.259Z,82.46
2024-05-09T21:55:26.050Z,82.36
2024-05-09T21:57:52.790Z,82.49
2024-05-09T22:00:28.855Z,82.39
2024-05-09T22:03:02.275Z,82.57
2024-05-09T22:05:29.311Z,82.40
2024-05-09T22:07:56.400Z,82.31
2024-05-09T22:10:27.102Z,82.58
2024-05-09T22:13:00.056Z,82.49
2024-05-09T22:15:26.828Z,82.78
2024-05-09T22:17:53.829Z,82.16
2024-05-09T22:20:28.803Z,82.70
2024-05-09T22:23:02.682Z,82.94
2024-05-09T22:25:31.010Z,82.96
2024-05-09T22:27:58.692Z,83.13
2024-05-09T22:30:34.080Z,82.99
2024-05-09T22:33:05.464Z,83.16
2024-05-09T22:35:32.352Z,83.56
2024-05-09T22:37:59.089Z,83.76
2024-05-09T22:40:37.929Z,83.56
2024-05-09T22:43:12.738Z,83.94
2024-05-09T22:45:39.803Z,84.46
2024-05-09T22:48:07.988Z,84.29
2024-05-09T22:50:34.954Z,84.08
2024-05-09T22:53:01.694Z,84.45
2024-05-09T22:55:28.474Z,84.88
2024-05-09T22:57:55.284Z,85.35
2024-05-09T23:00:30.457Z,85.60
2024-05-09T23:03:02.026Z,86.17
2024-05-09T23:05:29.252Z,86.44
2024-05-09T23:07:56.252Z,86.32
2024-05-09T23:10:31.021Z,86.79
2024-05-09T23:13:02.363Z,86.50
2024-05-09T23:15:29.250Z,86.37
2024-05-09T23:17:56.092Z,86.53
2024-05-09T23:20:33.263Z,86.41
2024-05-09T23:23:05.286Z,86.03
2024-05-09T23:25:32.427Z,86.05
2024-05-09T23:27:59.175Z,86.16
2024-05-09T23:30:34.085Z,86.40
2024-05-09T23:33:05.406Z,86.61
2024-05-09T23:35:32.210Z,86.69
2024-05-09T23:37:58.866Z,86.05
2024-05-09T23:40:36.752Z,86.50
2024-05-09T23:43:06.921Z,86.52
2024-05-09T23:45:33.915Z,86.56
2024-05-09T23:48:01.074Z,87.08
2024-05-09T23:50:34.388Z,86.75
2024-05-09T23:53:04.594Z,86.94
2024-05-09T23:55:31.927Z,86.72
2024-05-09T23:57:59.107Z,86.80
